sensor_id;sensor_type;location;lat;lon;timestamp;pressure;altitude;pressure_sealevel;temperature
26158;BMP280;67284;44.782;10.282;2023-04-23T00:04:48;100680.28;;;15.56
26158;BMP280;67284;44.782;10.282;2023-04-23T00:09:42;100680.31;;;15.55
26158;BMP280;67284;44.782;10.282;2023-04-23T00:14:34;100678.72;;;15.51
26158;BMP280;67284;44.782;10.282;2023-04-23T00:19:26;100672.69;;;15.50
26158;BMP280;67284;44.782;10.282;2023-04-23T00:24:19;100661.47;;;15.50
26158;BMP280;67284;44.782;10.282;2023-04-23T00:29:10;100665.00;;;15.47
26158;BMP280;67284;44.782;10.282;2023-04-23T00:34:03;100658.16;;;15.45
26158;BMP280;67284;44.782;10.282;2023-04-23T00:38:55;100667.69;;;15.44
26158;BMP280;67284;44.782;10.282;2023-04-23T00:43:47;100669.41;;;15.44
26158;BMP280;67284;44.782;10.282;2023-04-23T00:48:40;100659.09;;;15.42
26158;BMP280;67284;44.782;10.282;2023-04-23T00:53:32;100660.84;;;15.42
26158;BMP280;67284;44.782;10.282;2023-04-23T00:58:24;100660.06;;;15.40
26158;BMP280;67284;44.782;10.282;2023-04-23T01:03:16;100658.34;;;15.39
26158;BMP280;67284;44.782;10.282;2023-04-23T01:08:13;100651.47;;;15.38
26158;BMP280;67284;44.782;10.282;2023-04-23T01:13:05;100652.38;;;15.35
26158;BMP280;67284;44.782;10.282;2023-04-23T01:17:57;100656.75;;;15.35
26158;BMP280;67284;44.782;10.282;2023-04-23T01:22:50;100659.34;;;15.35
26158;BMP280;67284;44.782;10.282;2023-04-23T01:27:42;100647.31;;;15.32
26158;BMP280;67284;44.782;10.282;2023-04-23T01:32:34;100649.91;;;15.32
26158;BMP280;67284;44.782;10.282;2023-04-23T01:37:27;100643.06;;;15.30
26158;BMP280;67284;44.782;10.282;2023-04-23T01:42:19;100636.28;;;15.26
26158;BMP280;67284;44.782;10.282;2023-04-23T01:47:11;100642.34;;;15.25
26158;BMP280;67284;44.782;10.282;2023-04-23T01:52:03;100627.69;;;15.24
26158;BMP280;67284;44.782;10.282;2023-04-23T01:56:55;100623.41;;;15.23
26158;BMP280;67284;44.782;10.282;2023-04-23T02:01:47;100627.69;;;15.24
26158;BMP280;67284;44.782;10.282;2023-04-23T02:06:42;100638.06;;;15.24
26158;BMP280;67284;44.782;10.282;2023-04-23T02:11:34;100629.44;;;15.23
26158;BMP280;67284;44.782;10.282;2023-04-23T02:16:26;100631.19;;;15.23
26158;BMP280;67284;44.782;10.282;2023-04-23T02:21:19;100624.31;;;15.22
26158;BMP280;67284;44.782;10.282;2023-04-23T02:26:11;100620.88;;;15.20
26158;BMP280;67284;44.782;10.282;2023-04-23T02:31:03;100621.81;;;15.19
26158;BMP280;67284;44.782;10.282;2023-04-23T02:35:55;100622.66;;;15.18
26158;BMP280;67284;44.782;10.282;2023-04-23T02:40:47;100619.22;;;15.19
26158;BMP280;67284;44.782;10.282;2023-04-23T02:45:39;100623.53;;;15.17
26158;BMP280;67284;44.782;10.282;2023-04-23T02:50:31;100632.22;;;15.16
26158;BMP280;67284;44.782;10.282;2023-04-23T02:55:22;100621.94;;;15.13
26158;BMP280;67284;44.782;10.282;2023-04-23T03:00:16;100621.13;;;15.11
26158;BMP280;67284;44.782;10.282;2023-04-23T03:05:08;100620.31;;;15.10
26158;BMP280;67284;44.782;10.282;2023-04-23T03:10:01;100616.88;;;15.08
26158;BMP280;67284;44.782;10.282;2023-04-23T03:14:53;100611.69;;;15.08
26158;BMP280;67284;44.782;10.282;2023-04-23T03:19:48;100611.69;;;15.08
26158;BMP280;67284;44.782;10.282;2023-04-23T03:24:41;100610.06;;;15.06
26158;BMP280;67284;44.782;10.282;2023-04-23T03:29:33;100611.75;;;15.07
26158;BMP280;67284;44.782;10.282;2023-04-23T03:34:25;100611.78;;;15.06
26158;BMP280;67284;44.782;10.282;2023-04-23T03:39:17;100618.72;;;15.05
26158;BMP280;67284;44.782;10.282;2023-04-23T03:44:13;100623.03;;;15.05
26158;BMP280;67284;44.782;10.282;2023-04-23T03:49:08;100623.19;;;15.00
26158;BMP280;67284;44.782;10.282;2023-04-23T03:54:00;100618.03;;;14.99
26158;BMP280;67284;44.782;10.282;2023-04-23T03:58:55;100625.94;;;14.94
26158;BMP280;67284;44.782;10.282;2023-04-23T04:03:47;100638.91;;;14.94
26158;BMP280;67284;44.782;10.282;2023-04-23T04:08:39;100630.25;;;14.95
26158;BMP280;67284;44.782;10.282;2023-04-23T04:13:31;100633.72;;;14.94
26158;BMP280;67284;44.782;10.282;2023-04-23T04:18:23;100635.44;;;14.95
26158;BMP280;67284;44.782;10.282;2023-04-23T04:23:14;100638.91;;;14.94
26158;BMP280;67284;44.782;10.282;2023-04-23T04:28:06;100639.75;;;14.95
26158;BMP280;67284;44.782;10.282;2023-04-23T04:32:59;100632.09;;;14.90
26158;BMP280;67284;44.782;10.282;2023-04-23T04:37:52;100639.97;;;14.87
26158;BMP280;67284;44.782;10.282;2023-04-23T04:42:45;100635.59;;;14.89
26158;BMP280;67284;44.782;10.282;2023-04-23T04:47:37;100653.72;;;14.89
26158;BMP280;67284;44.782;10.282;2023-04-23T04:52:29;100646.94;;;14.85
26158;BMP280;67284;44.782;10.282;2023-04-23T04:57:21;100646.94;;;14.85
26158;BMP280;67284;44.782;10.282;2023-04-23T05:02:13;100645.94;;;14.89
26158;BMP280;67284;44.782;10.282;2023-04-23T05:07:05;100662.38;;;14.90
26158;BMP280;67284;44.782;10.282;2023-04-23T05:11:57;100651.13;;;14.89
26158;BMP280;67284;44.782;10.282;2023-04-23T05:16:49;100647.75;;;14.87
26158;BMP280;67284;44.782;10.282;2023-04-23T05:21:41;100646.00;;;14.88
26158;BMP280;67284;44.782;10.282;2023-04-23T05:26:33;100653.00;;;14.84
26158;BMP280;67284;44.782;10.282;2023-04-23T05:31:25;100652.19;;;14.82
26158;BMP280;67284;44.782;10.282;2023-04-23T05:36:19;100656.53;;;14.82
26158;BMP280;67284;44.782;10.282;2023-04-23T05:41:11;100657.41;;;14.81
26158;BMP280;67284;44.782;10.282;2023-04-23T05:46:03;100654.78;;;14.82
26158;BMP280;67284;44.782;10.282;2023-04-23T05:50:58;100669.44;;;14.83
26158;BMP280;67284;44.782;10.282;2023-04-23T05:55:50;100669.44;;;14.83
26158;BMP280;67284;44.782;10.282;2023-04-23T06:00:42;100670.22;;;14.87
26158;BMP280;67284;44.782;10.282;2023-04-23T06:05:34;100670.25;;;14.85
26158;BMP280;67284;44.782;10.282;2023-04-23T06:10:26;100668.47;;;14.87
26158;BMP280;67284;44.782;10.282;2023-04-23T06:15:18;100666.66;;;14.89
26158;BMP280;67284;44.782;10.282;2023-04-23T06:20:10;100675.28;;;14.91
26158;BMP280;67284;44.782;10.282;2023-04-23T06:25:02;100682.16;;;14.92
26158;BMP280;67284;44.782;10.282;2023-04-23T06:29:54;100677.88;;;14.91
26158;BMP280;67284;44.782;10.282;2023-04-23T06:34:47;100668.28;;;14.93
26158;BMP280;67284;44.782;10.282;2023-04-23T06:39:51;100676.03;;;14.95
26158;BMP280;67284;44.782;10.282;2023-04-23T06:44:43;100670.78;;;14.96
26158;BMP280;67284;44.782;10.282;2023-04-23T06:49:38;100673.34;;;14.98
26158;BMP280;67284;44.782;10.282;2023-04-23T06:54:30;100673.31;;;14.99
26158;BMP280;67284;44.782;10.282;2023-04-23T06:59:22;100675.84;;;15.02
26158;BMP280;67284;44.782;10.282;2023-04-23T07:04:17;100679.13;;;15.07
26158;BMP280;67284;44.782;10.282;2023-04-23T07:09:09;100674.66;;;15.12
26158;BMP280;67284;44.782;10.282;2023-04-23T07:14:02;100671.09;;;15.16
26158;BMP280;67284;44.782;10.282;2023-04-23T07:18:54;100675.25;;;15.23
26158;BMP280;67284;44.782;10.282;2023-04-23T07:23:46;100674.34;;;15.24
26158;BMP280;67284;44.782;10.282;2023-04-23T07:28:38;100660.50;;;15.25
26158;BMP280;67284;44.782;10.282;2023-04-23T07:33:30;100658.78;;;15.24
26158;BMP280;67284;44.782;10.282;2023-04-23T07:38:21;100652.63;;;15.28
26158;BMP280;67284;44.782;10.282;2023-04-23T07:43:13;100662.13;;;15.29
26158;BMP280;67284;44.782;10.282;2023-04-23T07:48:07;100651.66;;;15.32
26158;BMP280;67284;44.782;10.282;2023-04-23T07:52:59;100649.91;;;15.32
26158;BMP280;67284;44.782;10.282;2023-04-23T07:57:51;100649.75;;;15.37
26158;BMP280;67284;44.782;10.282;2023-04-23T08:02:43;100648.06;;;15.36
26158;BMP280;67284;44.782;10.282;2023-04-23T08:07:35;100656.63;;;15.38
26158;BMP280;67284;44.782;10.282;2023-04-23T08:12:27;100643.63;;;15.39
26158;BMP280;67284;44.782;10.282;2023-04-23T08:17:20;100639.03;;;15.49
26158;BMP280;67284;44.782;10.282;2023-04-23T08:22:11;100640.38;;;15.60
26158;BMP280;67284;44.782;10.282;2023-04-23T08:27:04;100639.56;;;15.60
26158;BMP280;67284;44.782;10.282;2023-04-23T08:31:56;100632.66;;;15.59
26158;BMP280;67284;44.782;10.282;2023-04-23T08:36:48;100630.25;;;15.53
26158;BMP280;67284;44.782;10.282;2023-04-23T08:41:41;100631.97;;;15.52
26158;BMP280;67284;44.782;10.282;2023-04-23T08:46:35;100625.81;;;15.56
26158;BMP280;67284;44.782;10.282;2023-04-23T08:51:29;100629.03;;;15.64
26158;BMP280;67284;44.782;10.282;2023-04-23T08:56:21;100622.19;;;15.62
26158;BMP280;67284;44.782;10.282;2023-04-23T09:01:16;100615.06;;;15.68
26158;BMP280;67284;44.782;10.282;2023-04-23T09:06:08;100614.13;;;15.70
26158;BMP280;67284;44.782;10.282;2023-04-23T09:11:01;100620.09;;;15.72
26158;BMP280;67284;44.782;10.282;2023-04-23T09:15:53;100606.94;;;15.78
26158;BMP280;67284;44.782;10.282;2023-04-23T09:20:44;100610.97;;;15.87
26158;BMP280;67284;44.782;10.282;2023-04-23T09:25:36;100614.34;;;15.90
26158;BMP280;67284;44.782;10.282;2023-04-23T09:30:28;100602.31;;;15.88
26158;BMP280;67284;44.782;10.282;2023-04-23T09:35:21;100592.91;;;15.84
26158;BMP280;67284;44.782;10.282;2023-04-23T09:40:18;100585.19;;;15.82
26158;BMP280;67284;44.782;10.282;2023-04-23T09:45:11;100586.84;;;15.85
26158;BMP280;67284;44.782;10.282;2023-04-23T09:50:04;100579.91;;;16.11
26158;BMP280;67284;44.782;10.282;2023-04-23T09:54:57;100578.44;;;16.28
26158;BMP280;67284;44.782;10.282;2023-04-23T09:59:53;100571.84;;;16.43
26158;BMP280;67284;44.782;10.282;2023-04-23T10:05:14;100569.72;;;16.76
26158;BMP280;67284;44.782;10.282;2023-04-23T10:10:18;100566.59;;;16.91
26158;BMP280;67284;44.782;10.282;2023-04-23T10:15:12;100567.34;;;16.95
26158;BMP280;67284;44.782;10.282;2023-04-23T10:20:05;100556.09;;;17.16
26158;BMP280;67284;44.782;10.282;2023-04-23T10:25:00;100570.59;;;17.21
26158;BMP280;67284;44.782;10.282;2023-04-23T10:29:56;100565.09;;;17.30
26158;BMP280;67284;44.782;10.282;2023-04-23T10:34:48;100554.09;;;17.66
26158;BMP280;67284;44.782;10.282;2023-04-23T10:39:43;100558.59;;;17.82
26158;BMP280;67284;44.782;10.282;2023-04-23T10:44:36;100545.97;;;17.73
26158;BMP280;67284;44.782;10.282;2023-04-23T10:49:33;100541.38;;;17.80
26158;BMP280;67284;44.782;10.282;2023-04-23T10:54:28;100539.69;;;17.99
26158;BMP280;67284;44.782;10.282;2023-04-23T10:59:22;100535.97;;;18.04
26158;BMP280;67284;44.782;10.282;2023-04-23T11:04:19;100535.84;;;18.07
26158;BMP280;67284;44.782;10.282;2023-04-23T11:09:46;100515.44;;;18.18
26158;BMP280;67284;44.782;10.282;2023-04-23T11:14:45;100495.56;;;18.16
26158;BMP280;67284;44.782;10.282;2023-04-23T11:19:38;100488.06;;;18.28
26158;BMP280;67284;44.782;10.282;2023-04-23T11:24:36;100473.03;;;18.34
26158;BMP280;67284;44.782;10.282;2023-04-23T11:29:32;100479.00;;;18.36
26158;BMP280;67284;44.782;10.282;2023-04-23T11:34:24;100474.41;;;18.23
26158;BMP280;67284;44.782;10.282;2023-04-23T11:39:16;100468.22;;;18.26
26158;BMP280;67284;44.782;10.282;2023-04-23T11:44:09;100456.25;;;18.40
26158;BMP280;67284;44.782;10.282;2023-04-23T11:49:02;100461.53;;;18.57
26158;BMP280;67284;44.782;10.282;2023-04-23T11:54:01;100459.09;;;18.54
26158;BMP280;67284;44.782;10.282;2023-04-23T11:59:03;100452.41;;;18.67
26158;BMP280;67284;44.782;10.282;2023-04-23T12:03:55;100446.13;;;18.71
26158;BMP280;67284;44.782;10.282;2023-04-23T12:08:48;100432.63;;;18.63
26158;BMP280;67284;44.782;10.282;2023-04-23T12:13:39;100440.50;;;18.79
26158;BMP280;67284;44.782;10.282;2023-04-23T12:18:37;100439.00;;;18.92
26158;BMP280;67284;44.782;10.282;2023-04-23T12:23:31;100424.81;;;19.16
26158;BMP280;67284;44.782;10.282;2023-04-23T12:28:24;100423.75;;;19.20
26158;BMP280;67284;44.782;10.282;2023-04-23T12:33:17;100422.06;;;19.19
26158;BMP280;67284;44.782;10.282;2023-04-23T12:38:25;100414.63;;;18.93
26158;BMP280;67284;44.782;10.282;2023-04-23T12:43:18;100413.72;;;18.76
26158;BMP280;67284;44.782;10.282;2023-04-23T12:48:10;100391.84;;;18.97
26158;BMP280;67284;44.782;10.282;2023-04-23T12:53:02;100385.38;;;19.05
26158;BMP280;67284;44.782;10.282;2023-04-23T12:57:54;100386.19;;;19.24
26158;BMP280;67284;44.782;10.282;2023-04-23T13:02:46;100379.84;;;19.11
26158;BMP280;67284;44.782;10.282;2023-04-23T13:07:38;100369.13;;;19.17
26158;BMP280;67284;44.782;10.282;2023-04-23T13:12:30;100371.34;;;19.25
26158;BMP280;67284;44.782;10.282;2023-04-23T13:17:22;100355.47;;;19.29
26158;BMP280;67284;44.782;10.282;2023-04-23T13:22:17;100346.97;;;19.26
26158;BMP280;67284;44.782;10.282;2023-04-23T13:27:09;100336.00;;;19.19
26158;BMP280;67284;44.782;10.282;2023-04-23T13:32:01;100329.63;;;19.25
26158;BMP280;67284;44.782;10.282;2023-04-23T13:36:53;100336.38;;;19.29
26158;BMP280;67284;44.782;10.282;2023-04-23T13:41:45;100324.66;;;19.20
26158;BMP280;67284;44.782;10.282;2023-04-23T13:46:57;100320.25;;;19.21
26158;BMP280;67284;44.782;10.282;2023-04-23T13:51:50;100322.72;;;19.24
26158;BMP280;67284;44.782;10.282;2023-04-23T13:56:45;100334.44;;;19.32
26158;BMP280;67284;44.782;10.282;2023-04-23T14:01:37;100316.34;;;19.12
26158;BMP280;67284;44.782;10.282;2023-04-23T14:06:29;100318.28;;;19.09
26158;BMP280;67284;44.782;10.282;2023-04-23T14:11:21;100314.97;;;19.05
26158;BMP280;67284;44.782;10.282;2023-04-23T14:16:13;100324.78;;;19.00
26158;BMP280;67284;44.782;10.282;2023-04-23T14:21:06;100314.81;;;19.08
26158;BMP280;67284;44.782;10.282;2023-04-23T14:26:02;100297.44;;;19.09
26158;BMP280;67284;44.782;10.282;2023-04-23T14:30:56;100302.72;;;19.07
26158;BMP280;67284;44.782;10.282;2023-04-23T14:35:48;100309.28;;;18.97
26158;BMP280;67284;44.782;10.282;2023-04-23T14:40:40;100303.88;;;18.67
26158;BMP280;67284;44.782;10.282;2023-04-23T14:45:32;100289.53;;;18.58
26158;BMP280;67284;44.782;10.282;2023-04-23T14:50:24;100292.19;;;18.57
26158;BMP280;67284;44.782;10.282;2023-04-23T14:55:16;100280.91;;;18.39
26158;BMP280;67284;44.782;10.282;2023-04-23T15:00:09;100280.97;;;18.38
26158;BMP280;67284;44.782;10.282;2023-04-23T15:05:04;100284.06;;;18.46
26158;BMP280;67284;44.782;10.282;2023-04-23T15:09:56;100280.09;;;18.56
26158;BMP280;67284;44.782;10.282;2023-04-23T15:14:47;100285.47;;;18.53
26158;BMP280;67284;44.782;10.282;2023-04-23T15:19:41;100289.06;;;18.50
26158;BMP280;67284;44.782;10.282;2023-04-23T15:24:33;100282.31;;;18.46
26158;BMP280;67284;44.782;10.282;2023-04-23T15:29:25;100290.34;;;18.42
26158;BMP280;67284;44.782;10.282;2023-04-23T15:34:17;100281.63;;;18.43
26158;BMP280;67284;44.782;10.282;2023-04-23T15:39:09;100279.91;;;18.42
26158;BMP280;67284;44.782;10.282;2023-04-23T15:44:01;100277.31;;;18.42
26158;BMP280;67284;44.782;10.282;2023-04-23T15:48:53;100278.28;;;18.39
26158;BMP280;67284;44.782;10.282;2023-04-23T15:53:45;100270.84;;;18.32
26158;BMP280;67284;44.782;10.282;2023-04-23T15:58:36;100272.53;;;18.33
26158;BMP280;67284;44.782;10.282;2023-04-23T16:03:28;100273.38;;;18.33
26158;BMP280;67284;44.782;10.282;2023-04-23T16:08:20;100267.47;;;18.12
26158;BMP280;67284;44.782;10.282;2023-04-23T16:13:12;100267.91;;;18.21
26158;BMP280;67284;44.782;10.282;2023-04-23T16:18:04;100259.47;;;18.16
26158;BMP280;67284;44.782;10.282;2023-04-23T16:22:56;100258.91;;;18.28
26158;BMP280;67284;44.782;10.282;2023-04-23T16:27:48;100245.94;;;18.27
26158;BMP280;67284;44.782;10.282;2023-04-23T16:32:40;100246.94;;;18.24
26158;BMP280;67284;44.782;10.282;2023-04-23T16:37:33;100235.94;;;18.18
26158;BMP280;67284;44.782;10.282;2023-04-23T16:42:25;100232.16;;;18.06
26158;BMP280;67284;44.782;10.282;2023-04-23T16:47:17;100216.66;;;18.03
26158;BMP280;67284;44.782;10.282;2023-04-23T16:52:09;100209.78;;;18.02
26158;BMP280;67284;44.782;10.282;2023-04-23T16:57:01;100204.44;;;18.05
26158;BMP280;67284;44.782;10.282;2023-04-23T17:01:56;100195.00;;;18.03
26158;BMP280;67284;44.782;10.282;2023-04-23T17:06:48;100184.53;;;18.04
26158;BMP280;67284;44.782;10.282;2023-04-23T17:11:40;100175.31;;;17.97
26158;BMP280;67284;44.782;10.282;2023-04-23T17:16:31;100178.50;;;17.85
26158;BMP280;67284;44.782;10.282;2023-04-23T17:21:24;100172.53;;;17.83
26158;BMP280;67284;44.782;10.282;2023-04-23T17:26:16;100177.88;;;17.80
26158;BMP280;67284;44.782;10.282;2023-04-23T17:31:08;100172.19;;;17.73
26158;BMP280;67284;44.782;10.282;2023-04-23T17:36:00;100176.69;;;17.69
26158;BMP280;67284;44.782;10.282;2023-04-23T17:40:52;100167.41;;;17.64
26158;BMP280;67284;44.782;10.282;2023-04-23T17:45:44;100160.81;;;17.57
26158;BMP280;67284;44.782;10.282;2023-04-23T17:50:36;100155.47;;;17.60
26158;BMP280;67284;44.782;10.282;2023-04-23T17:55:28;100153.69;;;17.60
26158;BMP280;67284;44.782;10.282;2023-04-23T18:00:20;100144.28;;;17.58
26158;BMP280;67284;44.782;10.282;2023-04-23T18:05:14;100145.97;;;17.59
26158;BMP280;67284;44.782;10.282;2023-04-23T18:10:07;100145.81;;;17.62
26158;BMP280;67284;44.782;10.282;2023-04-23T18:14:59;100137.69;;;17.51
26158;BMP280;67284;44.782;10.282;2023-04-23T18:19:52;100137.13;;;17.44
26158;BMP280;67284;44.782;10.282;2023-04-23T18:24:44;100141.81;;;17.36
26158;BMP280;67284;44.782;10.282;2023-04-23T18:29:37;100135.84;;;17.34
26158;BMP280;67284;44.782;10.282;2023-04-23T18:34:31;100146.31;;;17.33
26158;BMP280;67284;44.782;10.282;2023-04-23T18:39:25;100141.19;;;17.31
26158;BMP280;67284;44.782;10.282;2023-04-23T18:44:22;100153.78;;;17.20
26158;BMP280;67284;44.782;10.282;2023-04-23T18:54:22;100142.97;;;17.11
26158;BMP280;67284;44.782;10.282;2023-04-23T18:59:16;100143.09;;;17.08
26158;BMP280;67284;44.782;10.282;2023-04-23T19:04:09;100146.66;;;17.06
26158;BMP280;67284;44.782;10.282;2023-04-23T19:09:01;100157.00;;;17.07
26158;BMP280;67284;44.782;10.282;2023-04-23T19:13:53;100156.16;;;17.07
26158;BMP280;67284;44.782;10.282;2023-04-23T19:18:45;100147.59;;;17.05
26158;BMP280;67284;44.782;10.282;2023-04-23T19:23:36;100161.44;;;17.05
26158;BMP280;67284;44.782;10.282;2023-04-23T19:28:29;100174.50;;;17.04
26158;BMP280;67284;44.782;10.282;2023-04-23T19:33:21;100170.34;;;17.00
26158;BMP280;67284;44.782;10.282;2023-04-23T19:38:13;100174.84;;;16.96
26158;BMP280;67284;44.782;10.282;2023-04-23T19:43:05;100187.78;;;16.98
26158;BMP280;67284;44.782;10.282;2023-04-23T19:47:58;100181.97;;;16.91
26158;BMP280;67284;44.782;10.282;2023-04-23T19:52:51;100185.47;;;16.90
26158;BMP280;67284;44.782;10.282;2023-04-23T19:57:42;100193.28;;;16.90
26158;BMP280;67284;44.782;10.282;2023-04-23T20:02:34;100199.47;;;16.88
26158;BMP280;67284;44.782;10.282;2023-04-23T20:07:26;100201.22;;;16.87
26158;BMP280;67284;44.782;10.282;2023-04-23T20:12:18;100207.25;;;16.88
26158;BMP280;67284;44.782;10.282;2023-04-23T20:17:10;100214.25;;;16.86
26158;BMP280;67284;44.782;10.282;2023-04-23T20:22:02;100219.00;;;16.76
26158;BMP280;67284;44.782;10.282;2023-04-23T20:26:54;100221.72;;;16.73
26158;BMP280;67284;44.782;10.282;2023-04-23T20:31:47;100212.28;;;16.72
26158;BMP280;67284;44.782;10.282;2023-04-23T20:36:40;100196.78;;;16.69
26158;BMP280;67284;44.782;10.282;2023-04-23T20:41:32;100196.91;;;16.67
26158;BMP280;67284;44.782;10.282;2023-04-23T20:46:28;100183.03;;;16.67
26158;BMP280;67284;44.782;10.282;2023-04-23T20:51:23;100190.06;;;16.66
26158;BMP280;67284;44.782;10.282;2023-04-23T20:56:15;100188.50;;;16.62
26158;BMP280;67284;44.782;10.282;2023-04-23T21:01:08;100193.00;;;16.57
26158;BMP280;67284;44.782;10.282;2023-04-23T21:06:02;100182.56;;;16.58
26158;BMP280;67284;44.782;10.282;2023-04-23T21:10:55;100183.50;;;16.57
26158;BMP280;67284;44.782;10.282;2023-04-23T21:15:47;100186.91;;;16.58
26158;BMP280;67284;44.782;10.282;2023-04-23T21:20:39;100189.66;;;16.55
26158;BMP280;67284;44.782;10.282;2023-04-23T21:25:34;100174.84;;;16.57
26158;BMP280;67284;44.782;10.282;2023-04-23T21:35:27;100161.03;;;16.56
26158;BMP280;67284;44.782;10.282;2023-04-23T21:40:19;100155.81;;;16.56
26158;BMP280;67284;44.782;10.282;2023-04-23T21:45:11;100148.16;;;16.53
26158;BMP280;67284;44.782;10.282;2023-04-23T21:50:03;100145.63;;;16.52
26158;BMP280;67284;44.782;10.282;2023-04-23T21:54:55;100137.91;;;16.50
26158;BMP280;67284;44.782;10.282;2023-04-23T21:59:47;100139.66;;;16.50
26158;BMP280;67284;44.782;10.282;2023-04-23T22:04:40;100119.66;;;16.52
26158;BMP280;67284;44.782;10.282;2023-04-23T22:09:32;100121.28;;;16.54
26158;BMP280;67284;44.782;10.282;2023-04-23T22:14:24;100108.31;;;16.54
26158;BMP280;67284;44.782;10.282;2023-04-23T22:19:16;100116.94;;;16.55
26158;BMP280;67284;44.782;10.282;2023-04-23T22:24:09;100100.53;;;16.54
26158;BMP280;67284;44.782;10.282;2023-04-23T22:29:01;100105.75;;;16.53
26158;BMP280;67284;44.782;10.282;2023-04-23T22:33:55;100098.16;;;16.48
26158;BMP280;67284;44.782;10.282;2023-04-23T22:38:47;100109.53;;;16.46
26158;BMP280;67284;44.782;10.282;2023-04-23T22:43:39;100087.16;;;16.43
26158;BMP280;67284;44.782;10.282;2023-04-23T22:48:31;100091.69;;;16.38
26158;BMP280;67284;44.782;10.282;2023-04-23T22:53:23;100083.25;;;16.33
26158;BMP280;67284;44.782;10.282;2023-04-23T22:58:15;100084.22;;;16.31
26158;BMP280;67284;44.782;10.282;2023-04-23T23:03:06;100069.53;;;16.30
26158;BMP280;67284;44.782;10.282;2023-04-23T23:07:59;100052.41;;;16.26
26158;BMP280;67284;44.782;10.282;2023-04-23T23:12:50;100051.75;;;16.21
26158;BMP280;67284;44.782;10.282;2023-04-23T23:17:43;100034.47;;;16.20
26158;BMP280;67284;44.782;10.282;2023-04-23T23:22:35;100024.16;;;16.18
26158;BMP280;67284;44.782;10.282;2023-04-23T23:27:26;100013.06;;;16.15
26158;BMP280;67284;44.782;10.282;2023-04-23T23:32:18;100008.78;;;16.14
26158;BMP280;67284;44.782;10.282;2023-04-23T23:37:10;100013.19;;;16.12
26158;BMP280;67284;44.782;10.282;2023-04-23T23:42:02;100008.00;;;16.12
26158;BMP280;67284;44.782;10.282;2023-04-23T23:46:54;100000.34;;;16.09
26158;BMP280;67284;44.782;10.282;2023-04-23T23:51:46;100000.34;;;16.09
26158;BMP280;67284;44.782;10.282;2023-04-23T23:56:38;100004.63;;;16.10
